createdAt,value
2023-10-10T00:01:40.480Z,10.39
2023-10-10T00:04:08.518Z,10.36
2023-10-10T00:06:39.733Z,10.34
2023-10-10T00:09:11.229Z,10.29
2023-10-10T00:11:43.252Z,10.36
2023-10-10T00:14:18.556Z,10.37
2023-10-10T00:16:48.903Z,10.34
2023-10-10T00:19:22.818Z,10.35
2023-10-10T00:21:51.541Z,10.39
2023-10-10T00:24:24.137Z,10.46
2023-10-10T00:26:54.104Z,10.33
2023-10-10T00:29:27.305Z,10.33
2023-10-10T00:32:06.834Z,10.34
2023-10-10T00:34:38.168Z,10.43
2023-10-10T00:37:09.966Z,10.39
2023-10-10T00:39:38.357Z,10.43
2023-10-10T00:42:20.911Z,10.42
2023-10-10T00:44:49.227Z,10.40
2023-10-10T00:47:27.893Z,10.44
2023-10-10T00:49:56.595Z,10.47
2023-10-10T00:52:24.723Z,10.51
2023-10-10T00:54:53.904Z,10.41
2023-10-10T00:57:28.756Z,10.43
2023-10-10T00:59:58.038Z,10.37
2023-10-10T01:02:26.452Z,10.40
2023-10-10T01:05:06.314Z,10.44
2023-10-10T01:07:36.004Z,10.45
2023-10-10T01:10:12.598Z,10.39
2023-10-10T01:12:43.521Z,10.41
2023-10-10T01:15:15.742Z,10.42
2023-10-10T01:17:45.736Z,10.44
2023-10-10T01:20:20.201Z,10.46
2023-10-10T01:22:50.933Z,10.46
2023-10-10T01:25:42.417Z,10.52
2023-10-10T01:28:24.026Z,10.47
2023-10-10T01:31:06.423Z,10.42
2023-10-10T01:33:54.383Z,10.44
2023-10-10T01:36:23.675Z,10.42
2023-10-10T01:39:22.511Z,10.45
2023-10-10T01:41:53.515Z,10.43
2023-10-10T01:44:23.936Z,10.41
2023-10-10T01:46:55.641Z,10.36
2023-10-10T01:49:29.998Z,10.37
2023-10-10T01:52:00.479Z,10.38
2023-10-10T01:54:41.620Z,10.41
2023-10-10T01:57:21.928Z,10.46
2023-10-10T01:59:50.293Z,10.46
2023-10-10T02:02:20.215Z,10.41
2023-10-10T02:04:52.743Z,10.47
2023-10-10T02:07:24.440Z,10.53
2023-10-10T02:10:04.998Z,10.47
2023-10-10T02:12:35.246Z,10.43
2023-10-10T02:15:06.454Z,10.43
2023-10-10T02:17:40.691Z,10.42
2023-10-10T02:20:34.744Z,10.41
2023-10-10T02:23:24.058Z,10.39
2023-10-10T02:25:55.589Z,10.40
2023-10-10T02:28:43.763Z,10.38
2023-10-10T02:31:14.261Z,10.41
2023-10-10T02:33:49.633Z,10.41
2023-10-10T02:36:30.871Z,10.42
2023-10-10T02:39:11.037Z,10.44
2023-10-10T02:41:40.636Z,10.50
2023-10-10T02:44:10.735Z,10.46
2023-10-10T02:46:40.504Z,10.46
2023-10-10T02:49:23.485Z,10.46
2023-10-10T02:51:56.246Z,10.51
2023-10-10T02:54:34.727Z,10.55
2023-10-10T02:57:21.810Z,10.55
2023-10-10T02:59:52.824Z,10.54
2023-10-10T03:02:22.899Z,10.53
2023-10-10T03:05:07.072Z,10.58
2023-10-10T03:07:36.330Z,10.57
2023-10-10T03:10:23.384Z,10.64
2023-10-10T03:13:04.919Z,10.60
2023-10-10T03:15:34.445Z,10.61
2023-10-10T03:18:16.263Z,10.58
2023-10-10T03:21:07.143Z,10.65
2023-10-10T03:23:44.831Z,10.68
2023-10-10T03:26:21.035Z,10.66
2023-10-10T03:28:50.545Z,10.68
2023-10-10T03:31:32.822Z,10.68
2023-10-10T03:34:12.548Z,10.68
2023-10-10T03:36:45.546Z,10.67
2023-10-10T03:39:33.728Z,10.64
2023-10-10T03:42:18.189Z,10.69
2023-10-10T03:45:05.049Z,10.73
2023-10-10T03:47:50.310Z,10.75
2023-10-10T03:50:35.725Z,10.72
2023-10-10T03:53:21.180Z,10.74
2023-10-10T03:56:06.404Z,10.76
2023-10-10T03:58:51.757Z,10.81
2023-10-10T04:01:38.420Z,10.78
2023-10-10T04:04:23.731Z,10.83
2023-10-10T04:07:09.170Z,10.85
2023-10-10T04:09:54.932Z,10.88
2023-10-10T04:12:40.479Z,10.85
2023-10-10T04:15:26.311Z,10.88
2023-10-10T04:18:12.859Z,10.92
2023-10-10T04:20:58.255Z,10.92
2023-10-10T04:23:44.368Z,10.94
2023-10-10T04:26:29.866Z,11.00
2023-10-10T04:29:15.202Z,10.96
2023-10-10T04:32:01.118Z,10.98
2023-10-10T04:34:48.424Z,11.05
2023-10-10T04:37:33.771Z,11.04
2023-10-10T04:40:19.343Z,11.07
2023-10-10T04:43:04.742Z,11.06
2023-10-10T04:45:50.054Z,11.13
2023-10-10T04:48:35.460Z,11.11
2023-10-10T04:51:22.076Z,11.18
2023-10-10T04:54:07.789Z,11.24
2023-10-10T04:56:53.300Z,11.22
2023-10-10T04:59:38.571Z,11.28
2023-10-10T05:02:23.988Z,11.28
2023-10-10T05:05:08.524Z,11.27
2023-10-10T05:07:55.625Z,11.26
2023-10-10T05:10:41.007Z,11.27
2023-10-10T05:13:26.306Z,11.25
2023-10-10T05:16:12.066Z,11.29
2023-10-10T05:18:59.591Z,11.22
2023-10-10T05:21:45.211Z,11.16
2023-10-10T05:24:18.095Z,11.20
2023-10-10T05:26:48.326Z,11.18
2023-10-10T05:29:20.624Z,11.32
2023-10-10T05:31:49.108Z,11.32
2023-10-10T05:34:17.233Z,11.29
2023-10-10T05:36:46.496Z,11.32
2023-10-10T05:39:21.889Z,11.28
2023-10-10T05:41:54.964Z,11.31
2023-10-10T05:44:23.152Z,11.32
2023-10-10T05:46:51.200Z,11.32
2023-10-10T05:49:19.430Z,11.44
2023-10-10T05:51:47.294Z,11.38
2023-10-10T05:54:16.981Z,11.43
2023-10-10T05:56:47.616Z,11.48
2023-10-10T05:59:15.707Z,11.51
2023-10-10T06:01:44.269Z,11.52
2023-10-10T06:04:13.023Z,11.56
2023-10-10T06:06:43.691Z,11.60
2023-10-10T06:09:20.076Z,11.62
2023-10-10T06:11:50.820Z,11.65
2023-10-10T06:14:21.030Z,11.68
2023-10-10T06:16:49.131Z,11.70
2023-10-10T06:19:22.437Z,11.78
2023-10-10T06:21:52.831Z,11.81
2023-10-10T06:24:20.805Z,11.86
2023-10-10T06:26:50.687Z,11.93
2023-10-10T06:29:19.073Z,12.01
2023-10-10T06:31:47.323Z,12.06
2023-10-10T06:34:23.823Z,12.18
2023-10-10T06:36:53.057Z,12.27
2023-10-10T06:39:20.217Z,12.34
2023-10-10T06:41:51.531Z,12.53
2023-10-10T06:44:33.358Z,12.77
2023-10-10T06:47:09.949Z,12.77
2023-10-10T06:49:59.183Z,12.83
2023-10-10T06:52:28.915Z,12.90
2023-10-10T06:54:57.730Z,12.97
2023-10-10T06:57:44.519Z,13.04
2023-10-10T07:00:22.312Z,13.14
2023-10-10T07:02:52.580Z,13.28
2023-10-10T07:05:21.381Z,13.33
2023-10-10T07:07:54.158Z,13.36
2023-10-10T07:10:27.355Z,13.44
2023-10-10T07:12:59.147Z,13.47
2023-10-10T07:15:27.407Z,13.58
2023-10-10T07:18:09.254Z,13.70
2023-10-10T07:20:55.673Z,13.66
2023-10-10T07:23:24.027Z,13.80
2023-10-10T07:26:00.506Z,13.76
2023-10-10T07:28:30.753Z,13.72
2023-10-10T07:31:00.561Z,13.99
2023-10-10T07:33:41.426Z,13.99
2023-10-10T07:36:14.133Z,14.04
2023-10-10T07:38:42.335Z,13.97
2023-10-10T07:41:20.031Z,14.10
2023-10-10T07:43:50.825Z,14.13
2023-10-10T07:46:23.220Z,14.23
2023-10-10T07:48:55.162Z,14.20
2023-10-10T07:51:29.802Z,14.15
2023-10-10T07:54:14.054Z,14.12
2023-10-10T07:56:47.124Z,14.06
2023-10-10T07:59:17.944Z,14.14
2023-10-10T08:01:48.560Z,13.99
2023-10-10T08:04:18.443Z,14.06
2023-10-10T08:06:47.127Z,14.32
2023-10-10T08:09:21.093Z,14.36
2023-10-10T08:11:56.096Z,14.37
2023-10-10T08:14:32.316Z,14.44
2023-10-10T08:17:05.498Z,14.52
2023-10-10T08:19:35.533Z,14.58
2023-10-10T08:22:13.559Z,14.65
2023-10-10T08:24:44.896Z,14.74
2023-10-10T08:27:13.716Z,14.75
2023-10-10T08:29:43.039Z,15.09
2023-10-10T08:32:11.016Z,15.30
2023-10-10T08:34:42.847Z,15.35
2023-10-10T08:37:11.121Z,15.26
2023-10-10T08:39:40.560Z,15.39
2023-10-10T08:42:12.228Z,15.44
2023-10-10T08:44:43.133Z,15.66
2023-10-10T08:47:17.465Z,15.86
2023-10-10T08:49:48.764Z,15.74
2023-10-10T08:52:18.606Z,15.63
2023-10-10T08:54:47.822Z,15.54
2023-10-10T08:57:25.718Z,15.75
2023-10-10T08:59:55.732Z,16.07
2023-10-10T09:02:24.158Z,15.86
2023-10-10T09:04:52.590Z,15.81
2023-10-10T09:07:23.116Z,15.85
2023-10-10T09:10:05.637Z,15.64
2023-10-10T09:12:35.128Z,15.85
2023-10-10T09:15:17.898Z,15.90
2023-10-10T09:17:49.975Z,15.74
2023-10-10T09:20:29.636Z,16.03
2023-10-10T09:23:03.316Z,16.63
2023-10-10T09:25:42.748Z,16.93
2023-10-10T09:28:16.156Z,17.53
2023-10-10T09:30:51.410Z,17.21
2023-10-10T09:33:28.709Z,17.24
2023-10-10T09:36:00.334Z,16.70
2023-10-10T09:38:35.116Z,16.96
2023-10-10T09:41:15.631Z,17.05
2023-10-10T09:43:51.751Z,16.96
2023-10-10T09:46:27.144Z,17.27
2023-10-10T09:49:16.175Z,17.37
2023-10-10T09:52:01.983Z,17.09
2023-10-10T09:54:30.459Z,16.92
2023-10-10T09:57:00.086Z,16.87
2023-10-10T09:59:30.489Z,16.81
2023-10-10T10:02:05.548Z,16.95
2023-10-10T10:04:43.254Z,17.39
2023-10-10T10:07:28.068Z,17.68
2023-10-10T10:10:35.872Z,17.48
2023-10-10T10:13:20.490Z,17.93
2023-10-10T10:15:58.319Z,17.78
2023-10-10T10:18:45.409Z,17.72
2023-10-10T10:21:19.815Z,17.62
2023-10-10T10:23:57.643Z,17.37
2023-10-10T10:26:36.223Z,16.89
2023-10-10T10:29:16.643Z,16.77
2023-10-10T10:31:52.916Z,16.29
2023-10-10T10:34:32.590Z,16.24
2023-10-10T10:37:07.786Z,16.04
2023-10-10T10:39:37.224Z,15.89
2023-10-10T10:42:13.085Z,15.98
2023-10-10T10:44:48.098Z,16.04
2023-10-10T10:47:48.284Z,15.86
2023-10-10T10:50:43.867Z,15.89
2023-10-10T10:53:32.070Z,16.11
2023-10-10T10:56:19.387Z,16.17
2023-10-10T10:59:12.928Z,16.45
2023-10-10T11:01:44.446Z,16.42
2023-10-10T11:04:23.459Z,16.49
2023-10-10T11:06:53.208Z,16.35
2023-10-10T11:09:30.779Z,16.32
2023-10-10T11:12:08.174Z,16.37
2023-10-10T11:14:45.460Z,16.36
2023-10-10T11:17:18.864Z,16.42
2023-10-10T11:19:48.352Z,16.58
2023-10-10T11:22:39.273Z,16.54
2023-10-10T11:25:12.744Z,16.65
2023-10-10T11:27:45.880Z,16.55
2023-10-10T11:30:20.731Z,16.57
2023-10-10T11:32:49.065Z,16.49
2023-10-10T11:35:26.742Z,16.36
2023-10-10T11:38:07.403Z,16.35
2023-10-10T11:40:35.379Z,16.37
2023-10-10T11:43:05.781Z,16.25
2023-10-10T11:45:40.778Z,16.24
2023-10-10T11:48:14.623Z,16.21
2023-10-10T11:50:47.302Z,16.19
2023-10-10T11:53:21.206Z,16.24
2023-10-10T11:55:49.672Z,16.34
2023-10-10T11:58:18.672Z,16.33
2023-10-10T12:00:46.981Z,16.52
2023-10-10T12:03:19.362Z,16.50
2023-10-10T12:05:50.815Z,16.37
2023-10-10T12:08:24.573Z,16.48
2023-10-10T12:11:04.786Z,16.39
2023-10-10T12:13:35.438Z,16.34
2023-10-10T12:16:09.150Z,16.51
2023-10-10T12:18:44.670Z,16.83
2023-10-10T12:21:15.196Z,17.03
2023-10-10T12:23:44.470Z,17.49
2023-10-10T12:26:12.521Z,17.54
2023-10-10T12:28:41.133Z,17.70
2023-10-10T12:31:16.781Z,17.94
2023-10-10T12:33:46.728Z,17.89
2023-10-10T12:36:14.635Z,17.52
2023-10-10T12:38:44.167Z,17.45
2023-10-10T12:41:12.698Z,17.23
2023-10-10T12:43:41.089Z,17.10
2023-10-10T12:46:10.900Z,17.07
2023-10-10T12:48:41.167Z,17.23
2023-10-10T12:51:10.781Z,17.22
2023-10-10T12:53:41.329Z,16.90
2023-10-10T12:56:13.110Z,17.01
2023-10-10T12:58:44.104Z,17.01
2023-10-10T13:01:16.182Z,17.10
2023-10-10T13:03:49.238Z,17.25
2023-10-10T13:06:17.618Z,17.34
2023-10-10T13:08:49.688Z,17.36
2023-10-10T13:11:21.222Z,17.36
2023-10-10T13:13:52.923Z,17.26
2023-10-10T13:16:25.641Z,17.05
2023-10-10T13:18:54.946Z,17.14
2023-10-10T13:21:23.477Z,17.17
2023-10-10T13:23:53.290Z,17.27
2023-10-10T13:26:23.314Z,17.23
2023-10-10T13:28:51.390Z,17.25
2023-10-10T13:31:20.303Z,17.35
2023-10-10T13:33:48.696Z,17.32
2023-10-10T13:36:17.188Z,17.34
2023-10-10T13:38:49.058Z,17.14
2023-10-10T13:41:17.965Z,16.99
2023-10-10T13:43:49.006Z,17.08
2023-10-10T13:46:17.393Z,17.38
2023-10-10T13:48:45.467Z,17.45
2023-10-10T13:51:15.117Z,17.30
2023-10-10T13:53:44.747Z,17.15
2023-10-10T13:56:14.719Z,17.29
2023-10-10T13:58:47.948Z,17.12
2023-10-10T14:01:20.153Z,17.11
2023-10-10T14:03:49.777Z,17.02
2023-10-10T14:06:20.411Z,17.04
2023-10-10T14:08:49.689Z,17.02
2023-10-10T14:11:23.047Z,17.02
2023-10-10T14:13:51.703Z,17.13
2023-10-10T14:16:22.384Z,17.07
2023-10-10T14:18:51.947Z,17.13
2023-10-10T14:21:26.017Z,17.17
2023-10-10T14:23:56.491Z,17.16
2023-10-10T14:26:32.174Z,17.18
2023-10-10T14:29:05.916Z,17.41
2023-10-10T14:31:36.634Z,17.39
2023-10-10T14:34:06.868Z,17.39
2023-10-10T14:36:40.179Z,17.34
2023-10-10T14:39:09.496Z,17.29
2023-10-10T14:41:37.642Z,17.21
2023-10-10T14:44:08.092Z,17.13
2023-10-10T14:46:37.393Z,17.21
2023-10-10T14:49:07.436Z,17.14
2023-10-10T14:51:36.732Z,17.10
2023-10-10T14:54:09.737Z,17.07
2023-10-10T14:56:39.116Z,17.02
2023-10-10T14:59:08.608Z,16.91
2023-10-10T15:01:38.173Z,16.76
2023-10-10T15:04:07.194Z,16.82
2023-10-10T15:06:39.018Z,16.74
2023-10-10T15:09:09.709Z,16.62
2023-10-10T15:11:42.904Z,16.70
2023-10-10T15:14:11.931Z,16.65
2023-10-10T15:16:41.918Z,16.73
2023-10-10T15:19:10.838Z,16.65
2023-10-10T15:21:40.380Z,16.71
2023-10-10T15:24:12.592Z,16.74
2023-10-10T15:26:41.228Z,16.71
2023-10-10T15:29:12.002Z,16.74
2023-10-10T15:31:42.123Z,16.65
2023-10-10T15:34:11.340Z,16.55
2023-10-10T15:36:39.215Z,16.50
2023-10-10T15:39:10.954Z,16.70
2023-10-10T15:41:40.054Z,16.57
2023-10-10T15:44:09.299Z,16.48
2023-10-10T15:46:41.411Z,16.47
2023-10-10T15:51:45.744Z,16.41
2023-10-10T15:54:15.869Z,16.25
2023-10-10T15:56:47.615Z,16.20
2023-10-10T15:59:17.351Z,16.29
2023-10-10T16:01:47.994Z,16.16
2023-10-10T16:04:20.265Z,16.02
2023-10-10T16:06:51.290Z,15.89
2023-10-10T16:09:30.379Z,15.82
2023-10-10T16:11:58.493Z,15.75
2023-10-10T16:14:26.950Z,15.82
2023-10-10T16:16:55.914Z,15.78
2023-10-10T16:19:27.123Z,15.81
2023-10-10T16:21:56.703Z,15.80
2023-10-10T16:24:27.965Z,15.89
2023-10-10T16:27:00.202Z,15.82
2023-10-10T16:29:34.036Z,15.65
2023-10-10T16:32:02.752Z,15.57
2023-10-10T16:34:33.492Z,15.58
2023-10-10T16:37:01.643Z,15.63
2023-10-10T16:39:29.781Z,15.43
2023-10-10T16:41:59.755Z,15.37
2023-10-10T16:44:28.148Z,15.43
2023-10-10T16:46:56.080Z,15.50
2023-10-10T16:49:24.060Z,15.34
2023-10-10T16:51:55.316Z,15.42
2023-10-10T16:54:23.470Z,15.50
2023-10-10T16:56:54.989Z,15.36
2023-10-10T16:59:23.266Z,15.37
2023-10-10T17:01:51.256Z,15.32
2023-10-10T17:04:20.672Z,15.45
2023-10-10T17:06:50.883Z,15.37
2023-10-10T17:09:20.211Z,15.31
2023-10-10T17:11:51.609Z,15.24
2023-10-10T17:14:20.823Z,15.35
2023-10-10T17:16:48.891Z,15.25
2023-10-10T17:19:18.169Z,15.26
2023-10-10T17:21:48.429Z,15.34
2023-10-10T17:24:19.921Z,15.49
2023-10-10T17:26:49.494Z,15.36
2023-10-10T17:29:17.660Z,15.27
2023-10-10T17:31:45.816Z,15.19
2023-10-10T17:34:16.768Z,15.24
2023-10-10T17:36:45.344Z,15.19
2023-10-10T17:39:16.573Z,15.29
2023-10-10T17:41:48.491Z,15.17
2023-10-10T17:44:19.558Z,15.27
2023-10-10T17:46:48.842Z,15.28
2023-10-10T17:49:17.144Z,15.23
2023-10-10T17:51:46.249Z,15.21
2023-10-10T17:54:16.956Z,15.37
2023-10-10T17:56:46.689Z,15.30
2023-10-10T17:59:17.899Z,15.29
2023-10-10T18:01:47.360Z,15.28
2023-10-10T18:04:16.134Z,15.22
2023-10-10T18:06:44.332Z,15.30
2023-10-10T18:09:15.664Z,15.28
2023-10-10T18:11:43.713Z,15.25
2023-10-10T18:14:11.768Z,15.19
2023-10-10T18:16:40.956Z,15.20
2023-10-10T18:19:10.859Z,15.19
2023-10-10T18:21:41.469Z,15.15
2023-10-10T18:24:09.663Z,15.15
2023-10-10T18:26:39.107Z,15.33
2023-10-10T18:29:07.457Z,15.29
2023-10-10T18:31:36.053Z,15.19
2023-10-10T18:34:05.631Z,15.17
2023-10-10T18:36:37.865Z,15.15
2023-10-10T18:39:13.408Z,15.17
2023-10-10T18:41:43.734Z,15.28
2023-10-10T18:44:12.769Z,15.17
2023-10-10T18:46:44.286Z,15.13
2023-10-10T18:49:12.610Z,15.26
2023-10-10T18:51:43.519Z,15.11
2023-10-10T18:54:12.932Z,15.05
2023-10-10T18:56:40.914Z,15.07
2023-10-10T18:59:09.155Z,15.08
2023-10-10T19:01:38.709Z,15.02
2023-10-10T19:04:08.311Z,14.97
2023-10-10T19:06:39.712Z,14.94
2023-10-10T19:09:13.729Z,14.92
2023-10-10T19:11:41.966Z,15.05
2023-10-10T19:14:11.622Z,14.93
2023-10-10T19:16:39.678Z,14.91
2023-10-10T19:19:08.541Z,14.97
2023-10-10T19:21:36.868Z,14.92
2023-10-10T19:24:05.176Z,14.84
2023-10-10T19:26:34.980Z,14.80
2023-10-10T19:29:05.044Z,14.76
2023-10-10T19:31:39.641Z,14.78
2023-10-10T19:34:10.849Z,14.78
2023-10-10T19:36:39.324Z,14.73
2023-10-10T19:39:10.868Z,14.79
2023-10-10T19:41:41.177Z,14.77
2023-10-10T19:44:10.069Z,14.70
2023-10-10T19:46:38.098Z,14.75
2023-10-10T19:49:06.525Z,14.70
2023-10-10T19:51:34.736Z,14.74
2023-10-10T19:54:02.717Z,14.70
2023-10-10T19:56:31.132Z,14.67
2023-10-10T19:59:00.709Z,14.68
2023-10-10T20:01:28.722Z,14.63
2023-10-10T20:03:56.769Z,14.66
2023-10-10T20:06:25.039Z,14.68
2023-10-10T20:08:54.367Z,14.62
2023-10-10T20:11:23.517Z,14.61
2023-10-10T20:13:52.726Z,14.67
2023-10-10T20:16:26.820Z,14.65
2023-10-10T20:18:58.887Z,14.65
2023-10-10T20:21:28.146Z,14.63
2023-10-10T20:23:56.504Z,14.63
2023-10-10T20:26:26.723Z,14.66
2023-10-10T20:28:55.686Z,14.66
2023-10-10T20:31:25.087Z,14.70
2023-10-10T20:33:53.236Z,14.70
2023-10-10T20:36:21.180Z,14.74
2023-10-10T20:38:51.635Z,14.71
2023-10-10T20:41:20.431Z,14.68
2023-10-10T20:43:48.388Z,14.75
2023-10-10T20:46:20.562Z,14.77
2023-10-10T20:48:50.278Z,14.82
2023-10-10T20:51:18.372Z,14.76
2023-10-10T20:53:46.672Z,14.73
2023-10-10T20:56:17.776Z,14.74
2023-10-10T20:58:45.903Z,14.77
2023-10-10T21:01:14.715Z,14.75
2023-10-10T21:03:43.026Z,14.80
2023-10-10T21:06:13.297Z,14.73
2023-10-10T21:08:43.221Z,14.71
2023-10-10T21:11:11.976Z,14.71
2023-10-10T21:13:41.285Z,14.72
2023-10-10T21:16:15.352Z,14.67
2023-10-10T21:18:45.275Z,14.68
2023-10-10T21:21:15.507Z,14.64
2023-10-10T21:23:44.653Z,14.63
2023-10-10T21:26:15.661Z,14.72
2023-10-10T21:28:45.737Z,14.65
2023-10-10T21:31:14.548Z,14.67
2023-10-10T21:33:45.364Z,14.71
2023-10-10T21:36:15.730Z,14.69
2023-10-10T21:38:43.994Z,14.67
2023-10-10T21:41:12.878Z,14.64
2023-10-10T21:43:41.300Z,14.63
2023-10-10T21:46:09.671Z,14.65
2023-10-10T21:48:38.499Z,14.61
2023-10-10T21:51:14.437Z,14.60
2023-10-10T21:53:44.170Z,14.60
2023-10-10T21:56:12.314Z,14.52
2023-10-10T21:58:40.746Z,14.49
2023-10-10T22:01:12.625Z,14.46
2023-10-10T22:03:45.210Z,14.41
2023-10-10T22:06:13.763Z,14.43
2023-10-10T22:08:43.957Z,14.41
2023-10-10T22:11:15.546Z,14.38
2023-10-10T22:13:44.847Z,14.33
2023-10-10T22:16:12.892Z,14.31
2023-10-10T22:18:41.593Z,14.32
2023-10-10T22:21:12.052Z,14.34
2023-10-10T22:23:40.862Z,14.33
2023-10-10T22:26:10.101Z,14.33
2023-10-10T22:28:40.425Z,14.36
2023-10-10T22:31:15.239Z,14.33
2023-10-10T22:33:47.296Z,14.33
2023-10-10T22:36:16.970Z,14.50
2023-10-10T22:38:46.783Z,14.43
2023-10-10T22:41:15.407Z,14.44
2023-10-10T22:43:45.286Z,14.40
2023-10-10T22:46:13.992Z,14.36
2023-10-10T22:48:44.311Z,14.40
2023-10-10T22:51:13.872Z,14.33
2023-10-10T22:53:42.986Z,14.40
2023-10-10T22:56:12.454Z,14.36
2023-10-10T22:58:43.278Z,14.34
2023-10-10T23:01:17.007Z,14.30
2023-10-10T23:03:46.565Z,14.27
2023-10-10T23:06:15.228Z,14.34
2023-10-10T23:08:44.019Z,14.28
2023-10-10T23:11:14.135Z,14.29
2023-10-10T23:13:42.282Z,14.27
2023-10-10T23:16:18.033Z,14.27
2023-10-10T23:18:46.509Z,14.29
2023-10-10T23:21:14.849Z,14.24
2023-10-10T23:23:42.828Z,14.22
2023-10-10T23:26:10.878Z,14.19
2023-10-10T23:28:39.177Z,14.20
2023-10-10T23:31:08.052Z,14.16
2023-10-10T23:33:37.736Z,14.16
2023-10-10T23:36:07.592Z,14.14
2023-10-10T23:38:35.846Z,14.11
2023-10-10T23:41:05.484Z,14.13
2023-10-10T23:43:38.135Z,14.14
2023-10-10T23:46:07.707Z,14.14
2023-10-10T23:48:37.366Z,14.16
2023-10-10T23:51:08.247Z,14.14
2023-10-10T23:53:38.793Z,14.12
2023-10-10T23:56:08.963Z,14.16
2023-10-10T23:58:37.436Z,14.17
